createdAt,value
2022-10-17T00:01:56.758Z,101058.00
2022-10-17T00:04:42.332Z,101055.75
2022-10-17T00:07:28.796Z,101053.00
2022-10-17T00:10:15.188Z,101076.97
2022-10-17T00:13:00.783Z,101050.50
2022-10-17T00:15:46.264Z,101068.84
2022-10-17T00:18:32.366Z,101050.91
2022-10-17T00:21:19.326Z,101074.34
2022-10-17T00:24:05.790Z,101080.06
2022-10-17T00:26:51.511Z,101081.69
2022-10-17T00:29:37.838Z,101067.31
2022-10-17T00:32:23.848Z,101065.59
2022-10-17T00:35:09.940Z,101065.81
2022-10-17T00:37:55.570Z,101055.84
2022-10-17T00:40:41.475Z,101086.09
2022-10-17T00:43:27.355Z,101080.59
2022-10-17T00:46:13.322Z,101063.66
2022-10-17T00:49:03.137Z,101084.56
2022-10-17T00:51:57.818Z,101039.53
2022-10-17T00:54:50.161Z,101060.53
2022-10-17T00:57:35.946Z,101076.31
2022-10-17T01:00:21.886Z,101093.66
2022-10-17T01:03:07.522Z,101088.25
2022-10-17T01:05:53.038Z,101102.31
2022-10-17T01:08:39.299Z,101085.41
2022-10-17T01:11:44.330Z,101101.91
2022-10-17T01:14:46.636Z,101079.00
2022-10-17T01:18:17.547Z,101071.03
2022-10-17T01:21:18.257Z,101094.25
2022-10-17T01:24:32.704Z,101070.41
2022-10-17T01:27:30.305Z,101087.22
2022-10-17T01:30:47.745Z,101084.97
2022-10-17T01:34:00.227Z,101061.25
2022-10-17T01:36:57.984Z,101077.56
2022-10-17T01:39:50.812Z,101079.88
2022-10-17T01:42:49.671Z,101093.75
2022-10-17T01:45:40.838Z,101087.53
2022-10-17T01:48:33.157Z,101083.84
2022-10-17T01:51:23.367Z,101078.66
2022-10-17T01:54:24.327Z,101103.13
2022-10-17T01:57:21.018Z,101084.97
2022-10-17T02:00:11.620Z,101075.31
2022-10-17T02:03:02.791Z,101105.88
2022-10-17T02:05:48.754Z,101081.63
2022-10-17T02:08:48.862Z,101075.50
2022-10-17T02:11:35.029Z,101054.81
2022-10-17T02:14:39.767Z,101089.34
2022-10-17T02:17:30.666Z,101098.25
2022-10-17T02:20:17.944Z,101099.69
2022-10-17T02:23:11.418Z,101095.88
2022-10-17T02:26:06.526Z,101104.97
2022-10-17T02:29:13.539Z,101092.94
2022-10-17T02:32:04.255Z,101099.25
2022-10-17T02:34:53.056Z,101086.44
2022-10-17T02:37:39.888Z,101094.97
2022-10-17T02:40:27.025Z,101097.44
2022-10-17T02:43:13.310Z,101076.31
2022-10-17T02:45:59.256Z,101095.09
2022-10-17T02:48:49.429Z,101085.09
2022-10-17T02:52:01.811Z,101110.16
2022-10-17T02:54:48.952Z,101099.13
2022-10-17T02:57:38.639Z,101097.00
2022-10-17T03:00:25.645Z,101083.16
2022-10-17T03:03:27.454Z,101119.47
2022-10-17T03:06:13.394Z,101091.31
2022-10-17T03:08:58.749Z,101101.91
2022-10-17T03:11:45.450Z,101118.44
2022-10-17T03:14:31.958Z,101120.38
2022-10-17T03:17:17.821Z,101129.66
2022-10-17T03:20:05.646Z,101132.22
2022-10-17T03:22:51.267Z,101113.66
2022-10-17T03:25:37.468Z,101145.16
2022-10-17T03:28:24.530Z,101148.94
2022-10-17T03:31:13.164Z,101141.78
2022-10-17T03:33:59.513Z,101127.50
2022-10-17T03:36:45.748Z,101119.84
2022-10-17T03:39:31.671Z,101131.47
2022-10-17T03:42:17.803Z,101118.00
2022-10-17T03:45:04.252Z,101127.00
2022-10-17T03:47:50.401Z,101113.72
2022-10-17T03:50:36.965Z,101138.31
2022-10-17T03:53:22.814Z,101141.59
2022-10-17T03:56:12.052Z,101139.44
2022-10-17T03:58:57.772Z,101146.38
2022-10-17T04:01:44.235Z,101150.66
2022-10-17T04:04:31.129Z,101139.56
2022-10-17T04:07:17.743Z,101156.50
2022-10-17T04:10:05.102Z,101142.19
2022-10-17T04:12:51.653Z,101148.19
2022-10-17T04:15:37.059Z,101130.03
2022-10-17T04:18:23.816Z,101131.28
2022-10-17T04:21:10.506Z,101161.56
2022-10-17T04:23:58.474Z,101159.03
2022-10-17T04:27:02.729Z,101159.03
2022-10-17T04:29:52.400Z,101149.44
2022-10-17T04:32:43.600Z,101122.63
2022-10-17T04:35:37.961Z,101144.94
2022-10-17T04:38:28.519Z,101136.28
2022-10-17T04:41:16.959Z,101133.31
2022-10-17T04:44:02.420Z,101128.91
2022-10-17T04:46:51.295Z,101149.53
2022-10-17T04:49:37.460Z,101157.28
2022-10-17T04:52:28.828Z,101139.94
2022-10-17T04:55:14.508Z,101146.06
2022-10-17T04:58:01.216Z,101142.06
2022-10-17T05:00:49.476Z,101150.66
2022-10-17T05:03:46.174Z,101167.88
2022-10-17T05:06:33.137Z,101149.19
2022-10-17T05:09:54.242Z,101140.50
2022-10-17T05:12:41.088Z,101143.06
2022-10-17T05:15:27.001Z,101164.06
2022-10-17T05:18:14.016Z,101160.88
2022-10-17T05:21:03.912Z,101169.13
2022-10-17T05:23:49.912Z,101168.34
2022-10-17T05:26:36.411Z,101150.47
2022-10-17T05:29:22.732Z,101155.03
2022-10-17T05:32:15.558Z,101149.13
2022-10-17T05:35:01.615Z,101155.66
2022-10-17T05:37:48.489Z,101176.34
2022-10-17T05:40:35.680Z,101184.31
2022-10-17T05:43:22.370Z,101175.56
2022-10-17T05:46:08.350Z,101168.00
2022-10-17T05:48:55.653Z,101182.38
2022-10-17T05:51:41.737Z,101164.66
2022-10-17T05:54:28.041Z,101169.63
2022-10-17T05:57:14.996Z,101194.41
2022-10-17T06:00:02.645Z,101187.69
2022-10-17T06:02:59.783Z,101208.41
2022-10-17T06:05:48.579Z,101206.16
2022-10-17T06:08:35.035Z,101195.75
2022-10-17T06:11:22.542Z,101194.84
2022-10-17T06:14:08.685Z,101214.66
2022-10-17T06:16:56.498Z,101205.38
2022-10-17T06:19:42.257Z,101216.41
2022-10-17T06:22:28.857Z,101224.06
2022-10-17T06:25:15.429Z,101229.78
2022-10-17T06:28:01.342Z,101228.03
2022-10-17T06:30:47.485Z,101209.78
2022-10-17T06:33:34.616Z,101230.13
2022-10-17T06:36:21.363Z,101230.81
2022-10-17T06:39:08.834Z,101222.66
2022-10-17T06:42:19.890Z,101238.00
2022-10-17T06:45:21.657Z,101248.31
2022-10-17T06:48:33.978Z,101242.91
2022-10-17T06:51:39.808Z,101245.47
2022-10-17T06:54:28.545Z,101237.88
2022-10-17T06:57:40.618Z,101250.75
2022-10-17T07:01:10.230Z,101246.31
2022-10-17T07:03:56.206Z,101238.66
2022-10-17T07:06:42.276Z,101256.47
2022-10-17T07:09:39.476Z,101248.69
2022-10-17T07:12:25.398Z,101271.59
2022-10-17T07:15:11.305Z,101250.06
2022-10-17T07:17:57.555Z,101237.28
2022-10-17T07:20:44.014Z,101277.72
2022-10-17T07:23:30.268Z,101276.53
2022-10-17T07:26:17.234Z,101266.78
2022-10-17T07:29:02.978Z,101260.00
2022-10-17T07:31:56.537Z,101264.44
2022-10-17T07:34:42.509Z,101264.47
2022-10-17T07:37:30.252Z,101256.03
2022-10-17T07:40:18.347Z,101280.34
2022-10-17T07:43:04.668Z,101255.47
2022-10-17T07:45:50.809Z,101258.25
2022-10-17T07:48:36.543Z,101271.34
2022-10-17T07:51:23.265Z,101273.81
2022-10-17T07:54:09.185Z,101255.28
2022-10-17T07:56:55.361Z,101265.06
2022-10-17T07:59:41.960Z,101271.75
2022-10-17T08:02:28.491Z,101251.72
2022-10-17T08:05:14.576Z,101276.28
2022-10-17T08:08:00.800Z,101269.31
2022-10-17T08:10:46.558Z,101245.69
2022-10-17T08:13:34.271Z,101259.84
2022-10-17T08:16:20.264Z,101264.91
2022-10-17T08:19:06.183Z,101248.09
2022-10-17T08:21:54.304Z,101236.06
2022-10-17T08:24:40.138Z,101230.84
2022-10-17T08:27:27.785Z,101248.56
2022-10-17T08:30:13.617Z,101249.00
2022-10-17T08:32:59.275Z,101256.91
2022-10-17T08:35:44.741Z,101255.75
2022-10-17T08:38:35.071Z,101253.06
2022-10-17T08:41:40.407Z,101232.63
2022-10-17T08:44:48.181Z,101254.88
2022-10-17T08:47:40.171Z,101234.69
2022-10-17T08:50:36.981Z,101243.50
2022-10-17T08:53:42.354Z,101255.66
2022-10-17T08:56:48.892Z,101251.75
2022-10-17T08:59:35.718Z,101246.53
2022-10-17T09:02:31.774Z,101249.59
2022-10-17T09:05:39.027Z,101249.84
2022-10-17T09:08:31.937Z,101236.09
2022-10-17T09:11:51.346Z,101238.78
2022-10-17T09:14:49.165Z,101245.22
2022-10-17T09:17:54.497Z,101247.78
2022-10-17T09:20:48.149Z,101234.44
2022-10-17T09:23:45.418Z,101229.81
2022-10-17T09:26:31.652Z,101246.75
2022-10-17T09:29:22.451Z,101256.47
2022-10-17T09:32:21.983Z,101241.44
2022-10-17T09:35:12.967Z,101228.72
2022-10-17T09:37:58.542Z,101243.63
2022-10-17T09:40:45.629Z,101243.25
2022-10-17T09:43:32.111Z,101251.97
2022-10-17T09:46:26.422Z,101250.38
2022-10-17T09:49:20.369Z,101249.22
2022-10-17T09:52:12.886Z,101232.44
2022-10-17T09:55:21.591Z,101246.13
2022-10-17T09:58:09.087Z,101247.28
2022-10-17T10:01:19.634Z,101252.03
2022-10-17T10:04:12.913Z,101251.09
2022-10-17T10:07:05.986Z,101235.09
2022-10-17T10:09:51.894Z,101253.69
2022-10-17T10:12:39.057Z,101238.81
2022-10-17T10:15:35.930Z,101230.59
2022-10-17T10:18:25.025Z,101250.03
2022-10-17T10:21:16.387Z,101251.66
2022-10-17T10:24:09.952Z,101234.41
2022-10-17T10:26:58.305Z,101220.75
2022-10-17T10:29:51.923Z,101236.59
2022-10-17T10:32:37.487Z,101237.88
2022-10-17T10:35:33.253Z,101251.50
2022-10-17T10:38:21.079Z,101245.38
2022-10-17T10:41:08.332Z,101243.94
2022-10-17T10:43:55.067Z,101228.66
2022-10-17T10:46:41.454Z,101225.50
2022-10-17T10:49:30.922Z,101238.47
2022-10-17T10:52:38.018Z,101237.09
2022-10-17T10:55:27.792Z,101234.25
2022-10-17T10:58:26.440Z,101221.03
2022-10-17T11:01:43.860Z,101212.88
2022-10-17T11:04:38.360Z,101206.47
2022-10-17T11:07:28.984Z,101217.53
2022-10-17T11:10:23.698Z,101207.94
2022-10-17T11:13:17.845Z,101216.19
2022-10-17T11:16:16.052Z,101210.69
2022-10-17T11:19:35.878Z,101214.28
2022-10-17T11:22:32.419Z,101185.88
2022-10-17T11:25:28.692Z,101192.91
2022-10-17T11:28:19.161Z,101194.88
2022-10-17T11:31:08.892Z,101203.34
2022-10-17T11:33:59.530Z,101199.84
2022-10-17T11:36:45.393Z,101193.44
2022-10-17T11:39:39.021Z,101198.56
2022-10-17T11:42:29.379Z,101185.44
2022-10-17T11:45:18.494Z,101174.00
2022-10-17T11:48:13.910Z,101168.88
2022-10-17T11:54:30.934Z,101184.19
2022-10-17T11:57:44.959Z,101191.09
2022-10-17T12:00:41.636Z,101172.22
2022-10-17T12:03:59.859Z,101187.16
2022-10-17T12:06:52.064Z,101182.28
2022-10-17T12:09:43.451Z,101185.63
2022-10-17T12:12:31.574Z,101164.31
2022-10-17T12:15:20.828Z,101169.34
2022-10-17T12:18:16.451Z,101161.59
2022-10-17T12:21:02.581Z,101155.59
2022-10-17T12:23:55.339Z,101163.78
2022-10-17T12:26:41.828Z,101169.44
2022-10-17T12:29:29.161Z,101160.72
2022-10-17T12:32:15.561Z,101147.78
2022-10-17T12:35:01.628Z,101153.09
2022-10-17T12:37:50.717Z,101160.72
2022-10-17T12:40:36.528Z,101153.53
2022-10-17T12:43:28.766Z,101160.78
2022-10-17T12:46:47.759Z,101151.19
2022-10-17T12:49:45.581Z,101151.19
2022-10-17T12:52:31.270Z,101161.50
2022-10-17T12:55:18.638Z,101148.31
2022-10-17T12:58:10.512Z,101147.94
2022-10-17T13:01:23.596Z,101150.81
2022-10-17T13:04:05.932Z,101138.78
2022-10-17T13:06:54.778Z,101127.16
2022-10-17T13:09:43.706Z,101139.38
2022-10-17T13:12:30.308Z,101133.03
2022-10-17T13:15:19.103Z,101121.69
2022-10-17T13:18:05.853Z,101140.38
2022-10-17T13:20:56.732Z,101142.81
2022-10-17T13:23:42.536Z,101138.13
2022-10-17T13:26:28.828Z,101143.72
2022-10-17T13:29:15.978Z,101130.22
2022-10-17T13:32:04.850Z,101122.03
2022-10-17T13:35:10.542Z,101134.19
2022-10-17T13:37:56.689Z,101129.31
2022-10-17T13:40:50.019Z,101122.03
2022-10-17T13:43:36.669Z,101116.38
2022-10-17T13:46:39.182Z,101116.19
2022-10-17T13:49:33.966Z,101114.13
2022-10-17T13:52:23.626Z,101102.00
2022-10-17T13:55:17.602Z,101091.50
2022-10-17T13:58:31.650Z,101118.97
2022-10-17T14:01:18.592Z,101096.06
2022-10-17T14:04:10.435Z,101111.34
2022-10-17T14:06:58.108Z,101079.09
2022-10-17T14:09:46.692Z,101105.31
2022-10-17T14:12:33.660Z,101096.00
2022-10-17T14:15:20.020Z,101080.44
2022-10-17T14:18:08.425Z,101081.63
2022-10-17T14:24:14.555Z,101082.34
2022-10-17T14:27:00.637Z,101093.56
2022-10-17T14:29:53.932Z,101077.38
2022-10-17T14:32:43.088Z,101084.56
2022-10-17T14:35:41.470Z,101071.88
2022-10-17T14:38:29.817Z,101074.50
2022-10-17T14:41:41.919Z,101083.13
2022-10-17T14:44:32.062Z,101090.56
2022-10-17T14:47:42.214Z,101090.00
2022-10-17T14:50:29.384Z,101072.94
2022-10-17T14:53:14.725Z,101083.34
2022-10-17T14:56:24.963Z,101075.88
2022-10-17T14:59:13.741Z,101073.97
2022-10-17T15:02:01.343Z,101063.72
2022-10-17T15:04:47.545Z,101082.38
2022-10-17T15:07:33.371Z,101093.16
2022-10-17T15:10:26.538Z,101096.09
2022-10-17T15:13:27.612Z,101092.97
2022-10-17T15:16:18.609Z,101090.44
2022-10-17T15:19:04.566Z,101088.63
2022-10-17T15:21:50.235Z,101074.72
2022-10-17T15:24:35.905Z,101087.47
2022-10-17T15:27:24.145Z,101091.78
2022-10-17T15:30:32.422Z,101102.78
2022-10-17T15:33:18.216Z,101098.53
2022-10-17T15:36:04.403Z,101093.91
2022-10-17T15:38:53.242Z,101086.38
2022-10-17T15:41:39.235Z,101067.06
2022-10-17T15:44:24.693Z,101103.75
2022-10-17T15:47:20.266Z,101100.75
2022-10-17T15:50:08.726Z,101111.28
2022-10-17T15:52:55.057Z,101089.41
2022-10-17T15:55:41.249Z,101103.88
2022-10-17T15:58:34.346Z,101093.81
2022-10-17T16:01:25.790Z,101079.41
2022-10-17T16:04:14.927Z,101086.72
2022-10-17T16:07:00.780Z,101089.25
2022-10-17T16:09:47.185Z,101067.13
2022-10-17T16:12:37.115Z,101084.72
2022-10-17T16:15:28.001Z,101089.78
2022-10-17T16:18:13.364Z,101099.28
2022-10-17T16:20:59.456Z,101083.28
2022-10-17T16:23:45.713Z,101075.50
2022-10-17T16:26:31.684Z,101097.84
2022-10-17T16:29:17.462Z,101090.28
2022-10-17T16:32:03.206Z,101086.13
2022-10-17T16:34:48.988Z,101089.09
2022-10-17T16:37:35.800Z,101080.16
2022-10-17T16:40:21.691Z,101088.72
2022-10-17T16:43:09.681Z,101103.03
2022-10-17T16:45:55.407Z,101088.78
2022-10-17T16:48:42.184Z,101096.44
2022-10-17T16:51:29.234Z,101093.84
2022-10-17T16:54:14.924Z,101099.72
2022-10-17T16:57:01.294Z,101095.06
2022-10-17T16:59:47.272Z,101096.41
2022-10-17T17:02:33.289Z,101087.47
2022-10-17T17:05:19.300Z,101096.84
2022-10-17T17:08:07.976Z,101101.91
2022-10-17T17:10:58.750Z,101085.03
2022-10-17T17:13:44.566Z,101089.53
2022-10-17T17:16:31.754Z,101083.00
2022-10-17T17:19:17.582Z,101083.34
2022-10-17T17:22:03.673Z,101091.81
2022-10-17T17:27:41.080Z,101095.44
2022-10-17T17:30:26.507Z,101061.03
2022-10-17T17:33:12.437Z,101085.41
2022-10-17T17:36:00.230Z,101093.41
2022-10-17T17:38:46.799Z,101094.88
2022-10-17T17:41:33.124Z,101082.72
2022-10-17T17:44:19.250Z,101089.25
2022-10-17T17:47:05.758Z,101096.91
2022-10-17T17:49:51.470Z,101077.91
2022-10-17T17:52:37.134Z,101086.88
2022-10-17T17:55:23.510Z,101103.78
2022-10-17T17:58:09.442Z,101086.88
2022-10-17T18:00:55.112Z,101068.38
2022-10-17T18:03:41.146Z,101074.56
2022-10-17T18:06:28.021Z,101096.72
2022-10-17T18:09:14.026Z,101077.84
2022-10-17T18:11:59.855Z,101080.28
2022-10-17T18:14:45.631Z,101090.88
2022-10-17T18:17:31.559Z,101080.47
2022-10-17T18:20:17.099Z,101087.31
2022-10-17T18:23:04.210Z,101086.38
2022-10-17T18:26:00.735Z,101086.69
2022-10-17T18:28:46.580Z,101082.47
2022-10-17T18:31:35.880Z,101045.88
2022-10-17T18:34:22.116Z,101081.00
2022-10-17T18:37:07.738Z,101068.84
2022-10-17T18:39:55.815Z,101084.91
2022-10-17T18:42:44.397Z,101082.31
2022-10-17T18:45:30.152Z,101083.31
2022-10-17T18:48:15.703Z,101072.75
2022-10-17T18:51:02.941Z,101044.91
2022-10-17T18:53:50.433Z,101077.28
2022-10-17T18:56:36.130Z,101083.78
2022-10-17T18:59:22.514Z,101059.88
2022-10-17T19:02:12.895Z,101074.03
2022-10-17T19:04:58.587Z,101079.69
2022-10-17T19:07:44.609Z,101077.59
2022-10-17T19:10:32.616Z,101075.31
2022-10-17T19:13:21.520Z,101072.38
2022-10-17T19:16:08.792Z,101076.13
2022-10-17T19:19:03.197Z,101058.88
2022-10-17T19:21:49.521Z,101054.81
2022-10-17T19:24:35.685Z,101067.66
2022-10-17T19:27:21.513Z,101032.69
2022-10-17T19:30:07.957Z,101052.03
2022-10-17T19:32:53.728Z,101047.50
2022-10-17T19:35:41.362Z,101064.88
2022-10-17T19:38:27.527Z,101062.44
2022-10-17T19:41:15.497Z,101069.44
2022-10-17T19:44:01.431Z,101067.31
2022-10-17T19:46:49.148Z,101057.56
2022-10-17T19:49:35.172Z,101054.47
2022-10-17T19:52:21.379Z,101066.19
2022-10-17T19:55:07.442Z,101042.13
2022-10-17T19:57:53.354Z,101054.47
2022-10-17T20:00:38.931Z,101049.56
2022-10-17T20:03:25.420Z,101040.16
2022-10-17T20:06:11.526Z,101051.22
2022-10-17T20:08:58.546Z,101031.38
2022-10-17T20:11:44.605Z,101050.75
2022-10-17T20:14:30.605Z,101052.69
2022-10-17T20:17:16.433Z,101052.53
2022-10-17T20:20:07.670Z,101056.25
2022-10-17T20:22:54.569Z,101047.47
2022-10-17T20:25:40.329Z,101065.19
2022-10-17T20:28:27.477Z,101069.41
2022-10-17T20:31:14.246Z,101053.28
2022-10-17T20:34:00.538Z,101084.00
2022-10-17T20:36:47.180Z,101087.41
2022-10-17T20:39:32.921Z,101101.53
2022-10-17T20:42:19.053Z,101099.53
2022-10-17T20:45:06.046Z,101073.22
2022-10-17T20:47:53.972Z,101077.25
2022-10-17T20:50:39.723Z,101087.31
2022-10-17T20:53:36.544Z,101060.25
2022-10-17T20:56:28.460Z,101072.09
2022-10-17T20:59:16.214Z,101066.22
2022-10-17T21:02:02.787Z,101087.34
2022-10-17T21:04:49.902Z,101087.16
2022-10-17T21:07:35.817Z,101082.28
2022-10-17T21:10:34.928Z,101077.59
2022-10-17T21:13:21.367Z,101065.34
2022-10-17T21:16:13.071Z,101095.22
2022-10-17T21:18:59.084Z,101085.63
2022-10-17T21:21:46.087Z,101076.47
2022-10-17T21:24:31.568Z,101081.31
2022-10-17T21:27:18.656Z,101075.56
2022-10-17T21:30:05.071Z,101089.22
2022-10-17T21:32:54.337Z,101084.97
2022-10-17T21:35:40.514Z,101072.06
2022-10-17T21:38:26.349Z,101061.25
2022-10-17T21:41:14.198Z,101051.09
2022-10-17T21:44:02.211Z,101065.91
2022-10-17T21:46:48.392Z,101077.91
2022-10-17T21:49:34.122Z,101083.25
2022-10-17T21:52:19.567Z,101065.97
2022-10-17T21:55:05.511Z,101071.09
2022-10-17T21:57:51.441Z,101077.91
2022-10-17T22:00:37.058Z,101077.28
2022-10-17T22:03:22.809Z,101065.88
2022-10-17T22:06:41.388Z,101073.31
2022-10-17T22:09:23.581Z,101091.56
2022-10-17T22:12:09.762Z,101076.38
2022-10-17T22:14:55.755Z,101087.78
2022-10-17T22:17:41.613Z,101073.13
2022-10-17T22:20:27.117Z,101067.84
2022-10-17T22:23:12.739Z,101082.19
2022-10-17T22:25:59.192Z,101091.28
2022-10-17T22:28:45.144Z,101063.75
2022-10-17T22:31:31.346Z,101083.81
2022-10-17T22:34:17.673Z,101081.06
2022-10-17T22:37:03.562Z,101082.19
2022-10-17T22:39:49.504Z,101058.97
2022-10-17T22:42:35.570Z,101061.59
2022-10-17T22:45:22.378Z,101068.84
2022-10-17T22:48:08.508Z,101061.50
2022-10-17T22:50:56.101Z,101074.41
2022-10-17T22:53:41.768Z,101069.41
2022-10-17T22:56:27.706Z,101073.59
2022-10-17T22:59:13.192Z,101075.13
2022-10-17T23:01:59.310Z,101065.22
2022-10-17T23:04:45.233Z,101051.69
2022-10-17T23:07:31.515Z,101075.50
2022-10-17T23:10:17.447Z,101066.09
2022-10-17T23:13:03.950Z,101074.03
2022-10-17T23:15:54.593Z,101052.94
2022-10-17T23:18:41.009Z,101069.84
2022-10-17T23:21:26.413Z,101056.50
2022-10-17T23:24:12.699Z,101058.13
2022-10-17T23:26:58.818Z,101070.53
2022-10-17T23:29:44.631Z,101043.84
2022-10-17T23:32:31.313Z,101062.09
2022-10-17T23:35:17.548Z,101064.22
2022-10-17T23:38:03.252Z,101052.94
2022-10-17T23:40:49.174Z,101055.06
2022-10-17T23:43:34.904Z,101048.97
2022-10-17T23:46:20.518Z,101063.34
2022-10-17T23:49:07.158Z,101061.72
2022-10-17T23:51:52.852Z,101029.44
2022-10-17T23:54:38.458Z,101061.84
2022-10-17T23:57:24.270Z,101067.16
